createdAt,value
2023-02-15T00:00:16.021Z,2.60
2023-02-15T00:02:43.902Z,2.72
2023-02-15T00:05:14.333Z,2.15
2023-02-15T00:07:42.146Z,2.67
2023-02-15T00:10:10.342Z,2.92
2023-02-15T00:12:38.127Z,2.60
2023-02-15T00:15:06.143Z,2.45
2023-02-15T00:17:34.082Z,2.75
2023-02-15T00:20:02.008Z,2.85
2023-02-15T00:22:32.697Z,2.60
2023-02-15T00:25:00.838Z,2.60
2023-02-15T00:27:28.589Z,2.28
2023-02-15T00:29:56.383Z,2.28
2023-02-15T00:32:24.728Z,2.75
2023-02-15T00:34:52.633Z,1.73
2023-02-15T00:37:20.627Z,2.53
2023-02-15T00:39:51.107Z,1.92
2023-02-15T00:42:22.044Z,1.75
2023-02-15T00:44:49.762Z,2.25
2023-02-15T00:47:17.766Z,2.00
2023-02-15T00:49:45.586Z,2.72
2023-02-15T00:52:13.593Z,2.92
2023-02-15T00:54:41.382Z,2.33
2023-02-15T00:57:09.052Z,2.22
2023-02-15T00:59:36.733Z,2.60
2023-02-15T01:02:04.616Z,3.05
2023-02-15T01:04:38.329Z,1.98
2023-02-15T01:07:09.214Z,2.40
2023-02-15T01:09:37.148Z,2.28
2023-02-15T01:12:04.946Z,2.25
2023-02-15T01:14:33.094Z,2.50
2023-02-15T01:17:00.805Z,1.60
2023-02-15T01:19:33.151Z,2.47
2023-02-15T01:22:00.885Z,1.77
2023-02-15T01:24:28.837Z,1.95
2023-02-15T01:26:56.768Z,2.05
2023-02-15T01:29:24.449Z,2.17
2023-02-15T01:31:52.627Z,1.83
2023-02-15T01:34:20.443Z,1.58
2023-02-15T01:36:49.489Z,1.60
2023-02-15T01:39:17.182Z,1.52
2023-02-15T01:41:45.036Z,1.50
2023-02-15T01:44:46.859Z,1.73
2023-02-15T01:47:17.601Z,1.67
2023-02-15T01:49:45.612Z,1.33
2023-02-15T01:52:14.772Z,1.80
2023-02-15T01:54:43.294Z,1.90
2023-02-15T01:57:14.000Z,1.60
2023-02-15T01:59:42.116Z,1.20
2023-02-15T02:02:10.715Z,1.90
2023-02-15T02:04:45.106Z,2.20
2023-02-15T02:07:14.108Z,1.65
2023-02-15T02:09:41.838Z,1.10
2023-02-15T02:12:09.559Z,1.67
2023-02-15T02:14:37.812Z,1.42
2023-02-15T02:17:32.789Z,2.17
2023-02-15T02:20:21.810Z,1.08
2023-02-15T02:23:12.279Z,1.60
2023-02-15T02:26:18.428Z,1.67
2023-02-15T02:28:55.257Z,2.10
2023-02-15T02:31:45.674Z,2.03
2023-02-15T02:34:21.114Z,1.60
2023-02-15T02:36:53.869Z,2.30
2023-02-15T02:39:42.059Z,2.30
2023-02-15T02:42:18.372Z,1.38
2023-02-15T02:44:52.975Z,1.83
2023-02-15T02:47:25.445Z,1.85
2023-02-15T02:49:53.921Z,1.80
2023-02-15T02:52:42.154Z,1.70
2023-02-15T02:55:22.490Z,1.85
2023-02-15T02:58:04.929Z,1.63
2023-02-15T03:00:37.926Z,1.85
2023-02-15T03:03:09.017Z,1.90
2023-02-15T03:05:40.764Z,1.88
2023-02-15T03:08:11.089Z,1.90
2023-02-15T03:10:40.829Z,2.17
2023-02-15T03:13:08.997Z,1.65
2023-02-15T03:15:59.634Z,2.22
2023-02-15T03:18:33.135Z,1.60
2023-02-15T03:21:01.585Z,1.95
2023-02-15T03:23:30.334Z,1.52
2023-02-15T03:26:02.237Z,2.00
2023-02-15T03:28:43.972Z,1.90
2023-02-15T03:31:12.449Z,1.80
2023-02-15T03:33:45.513Z,2.08
2023-02-15T03:36:24.091Z,2.67
2023-02-15T03:39:06.456Z,1.90
2023-02-15T03:41:38.398Z,1.98
2023-02-15T03:44:20.160Z,2.65
2023-02-15T03:46:56.017Z,2.05
2023-02-15T03:49:30.245Z,1.92
2023-02-15T03:51:58.887Z,1.77
2023-02-15T03:54:43.899Z,1.98
2023-02-15T03:57:41.001Z,2.28
2023-02-15T04:00:43.650Z,2.60
2023-02-15T04:03:17.284Z,2.90
2023-02-15T04:05:45.750Z,2.38
2023-02-15T04:08:13.790Z,2.58
2023-02-15T04:10:59.225Z,2.08
2023-02-15T04:13:40.089Z,2.78
2023-02-15T04:16:08.670Z,1.52
2023-02-15T04:19:02.325Z,1.98
2023-02-15T04:21:50.021Z,1.63
2023-02-15T04:24:36.870Z,2.28
2023-02-15T04:27:05.507Z,1.85
2023-02-15T04:29:33.636Z,1.90
2023-02-15T04:32:01.922Z,1.52
2023-02-15T04:34:29.784Z,2.30
2023-02-15T04:36:57.756Z,2.33
2023-02-15T04:39:25.432Z,2.33
2023-02-15T04:41:53.252Z,1.77
2023-02-15T04:44:20.977Z,2.60
2023-02-15T04:46:48.697Z,1.77
2023-02-15T04:49:16.354Z,2.10
2023-02-15T04:51:44.395Z,2.30
2023-02-15T04:54:12.194Z,2.50
2023-02-15T04:56:40.509Z,2.60
2023-02-15T04:59:13.409Z,2.00
2023-02-15T05:01:42.763Z,2.50
2023-02-15T05:04:10.698Z,2.60
2023-02-15T05:06:39.108Z,1.92
2023-02-15T05:09:06.827Z,1.90
2023-02-15T05:11:34.710Z,2.30
2023-02-15T05:14:02.686Z,2.17
2023-02-15T05:16:30.541Z,1.75
2023-02-15T05:18:59.067Z,3.10
2023-02-15T05:21:31.539Z,2.53
2023-02-15T05:23:59.489Z,1.75
2023-02-15T05:26:45.663Z,1.65
2023-02-15T05:29:13.380Z,2.35
2023-02-15T05:31:41.304Z,1.98
2023-02-15T05:34:09.456Z,1.83
2023-02-15T05:36:37.224Z,1.85
2023-02-15T05:39:07.058Z,1.70
2023-02-15T05:41:34.854Z,2.03
2023-02-15T05:44:02.718Z,1.88
2023-02-15T05:46:30.642Z,2.30
2023-02-15T05:48:58.708Z,1.77
2023-02-15T05:51:26.457Z,2.03
2023-02-15T05:53:54.174Z,1.88
2023-02-15T05:56:22.524Z,1.98
2023-02-15T05:58:50.949Z,1.80
2023-02-15T06:01:19.414Z,1.90
2023-02-15T06:03:47.457Z,2.00
2023-02-15T06:06:16.040Z,1.88
2023-02-15T06:08:43.977Z,1.92
2023-02-15T06:11:12.067Z,1.67
2023-02-15T06:13:40.199Z,2.15
2023-02-15T06:16:08.142Z,1.88
2023-02-15T06:18:35.957Z,2.22
2023-02-15T06:21:03.805Z,2.45
2023-02-15T06:23:31.857Z,2.45
2023-02-15T06:25:59.864Z,5.00
2023-02-15T06:28:27.677Z,4.63
2023-02-15T06:30:55.417Z,5.55
2023-02-15T06:33:24.175Z,3.25
2023-02-15T06:35:52.000Z,3.10
2023-02-15T06:38:19.761Z,2.10
2023-02-15T06:40:47.764Z,2.70
2023-02-15T06:43:15.413Z,2.20
2023-02-15T06:45:43.446Z,2.97
2023-02-15T06:48:12.388Z,2.35
2023-02-15T06:50:40.084Z,2.17
2023-02-15T06:53:12.076Z,1.80
2023-02-15T06:55:39.954Z,2.00
2023-02-15T06:58:07.786Z,2.55
2023-02-15T07:00:35.629Z,1.90
2023-02-15T07:03:04.039Z,2.42
2023-02-15T07:05:34.361Z,2.47
2023-02-15T07:08:02.303Z,2.83
2023-02-15T07:10:30.397Z,2.13
2023-02-15T07:12:58.106Z,2.28
2023-02-15T07:15:26.477Z,1.90
2023-02-15T07:17:54.948Z,2.08
2023-02-15T07:20:23.577Z,1.80
2023-02-15T07:22:52.283Z,2.20
2023-02-15T07:25:20.222Z,2.17
2023-02-15T07:27:47.944Z,2.90
2023-02-15T07:30:17.208Z,4.07
2023-02-15T07:33:05.676Z,3.15
2023-02-15T07:35:36.114Z,1.83
2023-02-15T07:38:03.809Z,2.05
2023-02-15T07:40:31.732Z,2.63
2023-02-15T07:43:00.295Z,3.22
2023-02-15T07:45:28.279Z,3.40
2023-02-15T07:47:56.910Z,3.03
2023-02-15T07:50:24.678Z,2.28
2023-02-15T07:52:52.820Z,2.47
2023-02-15T07:55:20.731Z,2.20
2023-02-15T07:57:49.781Z,2.00
2023-02-15T08:00:18.828Z,2.22
2023-02-15T08:03:10.786Z,3.03
2023-02-15T08:05:38.867Z,2.55
2023-02-15T08:08:06.901Z,1.70
2023-02-15T08:10:53.796Z,2.00
2023-02-15T08:13:23.310Z,1.70
2023-02-15T08:15:56.227Z,2.00
2023-02-15T08:18:24.096Z,1.30
2023-02-15T08:20:52.268Z,3.10
2023-02-15T08:23:20.686Z,2.65
2023-02-15T08:25:48.441Z,2.65
2023-02-15T08:28:16.426Z,2.50
2023-02-15T08:30:44.454Z,2.55
2023-02-15T08:33:12.865Z,1.52
2023-02-15T08:35:40.946Z,2.13
2023-02-15T08:38:09.699Z,1.70
2023-02-15T08:40:39.243Z,2.20
2023-02-15T08:43:08.228Z,1.90
2023-02-15T08:45:37.079Z,1.75
2023-02-15T08:48:05.487Z,2.00
2023-02-15T08:50:35.071Z,2.20
2023-02-15T08:53:03.217Z,1.77
2023-02-15T08:55:31.037Z,2.88
2023-02-15T08:57:59.042Z,2.40
2023-02-15T09:00:27.127Z,2.03
2023-02-15T09:02:54.966Z,1.77
2023-02-15T09:05:23.049Z,1.83
2023-02-15T09:07:50.863Z,2.35
2023-02-15T09:10:18.988Z,2.67
2023-02-15T09:12:47.698Z,2.10
2023-02-15T09:15:19.831Z,2.17
2023-02-15T09:17:50.024Z,2.28
2023-02-15T09:20:17.981Z,1.98
2023-02-15T09:22:45.899Z,2.10
2023-02-15T09:25:14.789Z,3.55
2023-02-15T09:27:43.326Z,2.22
2023-02-15T09:30:12.402Z,2.13
2023-02-15T09:32:43.428Z,1.70
2023-02-15T09:35:13.361Z,1.85
2023-02-15T09:37:41.596Z,2.15
2023-02-15T09:40:09.665Z,2.10
2023-02-15T09:43:23.806Z,1.23
2023-02-15T09:46:13.787Z,2.60
2023-02-15T09:48:43.068Z,1.77
2023-02-15T09:51:18.104Z,1.42
2023-02-15T09:53:51.934Z,2.05
2023-02-15T09:56:39.970Z,2.10
2023-02-15T09:59:36.608Z,2.50
2023-02-15T10:02:07.322Z,2.20
2023-02-15T10:04:35.638Z,2.30
2023-02-15T10:07:28.249Z,2.00
2023-02-15T10:10:13.322Z,2.10
2023-02-15T10:13:14.942Z,1.95
2023-02-15T10:15:59.280Z,2.17
2023-02-15T10:18:49.978Z,2.30
2023-02-15T10:21:53.134Z,1.77
2023-02-15T10:24:42.633Z,2.40
2023-02-15T10:27:14.665Z,2.35
2023-02-15T10:30:08.710Z,2.50
2023-02-15T10:33:00.330Z,2.83
2023-02-15T10:35:39.364Z,1.70
2023-02-15T10:38:18.194Z,3.30
2023-02-15T10:41:08.211Z,2.30
2023-02-15T10:43:47.677Z,1.98
2023-02-15T10:46:41.461Z,2.30
2023-02-15T10:49:27.543Z,2.85
2023-02-15T10:52:04.129Z,2.80
2023-02-15T10:54:42.120Z,2.67
2023-02-15T10:57:19.693Z,2.17
2023-02-15T10:59:57.168Z,2.80
2023-02-15T11:02:47.933Z,3.03
2023-02-15T11:05:37.270Z,3.10
2023-02-15T11:08:06.413Z,1.80
2023-02-15T11:10:37.918Z,3.28
2023-02-15T11:13:18.230Z,2.30
2023-02-15T11:15:55.539Z,2.13
2023-02-15T11:18:25.930Z,2.42
2023-02-15T11:20:59.523Z,2.15
2023-02-15T11:23:27.455Z,2.45
2023-02-15T11:26:03.462Z,2.25
2023-02-15T11:28:48.142Z,2.50
2023-02-15T11:31:23.699Z,1.83
2023-02-15T11:33:58.478Z,1.98
2023-02-15T11:36:27.961Z,2.47
2023-02-15T11:38:59.571Z,2.58
2023-02-15T11:41:31.219Z,1.80
2023-02-15T11:46:37.985Z,2.65
2023-02-15T11:49:32.760Z,2.08
2023-02-15T11:52:08.530Z,3.75
2023-02-15T11:54:37.783Z,2.38
2023-02-15T11:57:42.023Z,3.15
2023-02-15T12:00:14.275Z,1.50
2023-02-15T12:02:46.532Z,2.50
2023-02-15T12:08:05.118Z,1.88
2023-02-15T12:10:39.532Z,2.30
2023-02-15T12:13:14.016Z,2.30
2023-02-15T12:15:47.693Z,2.37
2023-02-15T12:18:27.305Z,2.20
2023-02-15T12:20:55.301Z,2.25
2023-02-15T12:23:23.065Z,2.08
2023-02-15T12:25:55.606Z,2.55
2023-02-15T12:28:40.755Z,2.08
2023-02-15T12:31:24.537Z,2.05
2023-02-15T12:33:55.128Z,2.15
2023-02-15T12:36:29.145Z,1.80
2023-02-15T12:39:29.984Z,1.30
2023-02-15T12:42:05.144Z,1.85
2023-02-15T12:44:37.181Z,1.77
2023-02-15T12:50:04.754Z,1.50
2023-02-15T12:52:32.904Z,1.88
2023-02-15T12:55:21.103Z,1.85
2023-02-15T12:57:49.039Z,1.75
2023-02-15T13:00:19.447Z,2.60
2023-02-15T13:02:54.677Z,1.93
2023-02-15T13:05:44.156Z,2.08
2023-02-15T13:08:23.315Z,2.75
2023-02-15T13:11:00.587Z,2.47
2023-02-15T13:13:33.002Z,2.10
2023-02-15T13:16:06.709Z,1.67
2023-02-15T13:18:47.567Z,2.88
2023-02-15T13:21:17.892Z,3.28
2023-02-15T13:23:49.902Z,2.78
2023-02-15T13:26:20.177Z,2.80
2023-02-15T13:28:50.085Z,3.38
2023-02-15T13:31:22.160Z,3.35
2023-02-15T13:34:02.916Z,3.30
2023-02-15T13:36:40.723Z,3.57
2023-02-15T13:39:26.187Z,3.15
2023-02-15T13:42:03.345Z,3.28
2023-02-15T13:44:40.501Z,4.45
2023-02-15T13:47:21.234Z,3.50
2023-02-15T13:50:14.186Z,2.40
2023-02-15T13:52:55.738Z,2.50
2023-02-15T13:55:42.539Z,2.13
2023-02-15T13:58:28.331Z,1.73
2023-02-15T14:01:05.251Z,2.50
2023-02-15T14:04:10.176Z,4.50
2023-02-15T14:07:10.879Z,2.33
2023-02-15T14:09:48.732Z,2.78
2023-02-15T14:12:31.681Z,2.30
2023-02-15T14:15:08.927Z,4.88
2023-02-15T14:17:53.546Z,2.95
2023-02-15T14:20:38.734Z,2.60
2023-02-15T14:23:12.783Z,3.92
2023-02-15T14:25:45.965Z,3.30
2023-02-15T14:28:24.695Z,2.78
2023-02-15T14:30:53.903Z,3.55
2023-02-15T14:33:41.797Z,3.13
2023-02-15T14:36:12.603Z,4.00
2023-02-15T14:38:58.213Z,3.17
2023-02-15T14:41:45.168Z,3.17
2023-02-15T14:44:17.454Z,3.60
2023-02-15T14:46:59.967Z,3.45
2023-02-15T14:49:29.105Z,3.45
2023-02-15T14:52:01.359Z,4.38
2023-02-15T14:54:34.403Z,4.57
2023-02-15T14:57:02.086Z,3.63
2023-02-15T14:59:59.527Z,3.50
2023-02-15T15:02:51.671Z,3.25
2023-02-15T15:09:26.993Z,2.67
2023-02-15T15:12:26.921Z,4.85
2023-02-15T15:14:56.701Z,4.28
2023-02-15T15:17:39.199Z,3.40
2023-02-15T15:20:08.534Z,3.42
2023-02-15T15:22:36.554Z,3.63
2023-02-15T15:25:11.912Z,3.83
2023-02-15T15:27:55.241Z,5.93
2023-02-15T15:30:24.928Z,9.20
2023-02-15T15:32:56.193Z,7.65
2023-02-15T15:35:45.589Z,9.00
2023-02-15T15:38:28.397Z,4.20
2023-02-15T15:41:15.186Z,12.02
2023-02-15T15:44:12.552Z,13.90
2023-02-15T15:46:58.406Z,5.10
2023-02-15T15:49:28.413Z,4.30
2023-02-15T15:51:56.108Z,4.32
2023-02-15T15:54:25.311Z,5.22
2023-02-15T15:57:05.655Z,4.43
2023-02-15T15:59:35.141Z,3.50
2023-02-15T16:02:09.110Z,3.92
2023-02-15T16:04:37.183Z,7.28
2023-02-15T16:07:19.619Z,5.93
2023-02-15T16:09:58.684Z,5.05
2023-02-15T16:12:30.649Z,3.88
2023-02-15T16:15:14.544Z,4.65
2023-02-15T16:17:44.200Z,5.93
2023-02-15T16:20:19.775Z,12.48
2023-02-15T16:22:48.371Z,11.00
2023-02-15T16:25:28.384Z,11.30
2023-02-15T16:27:56.288Z,8.30
2023-02-15T16:30:31.310Z,6.35
2023-02-15T16:33:10.601Z,3.92
2023-02-15T16:35:58.496Z,2.55
2023-02-15T16:38:52.403Z,4.55
2023-02-15T16:41:28.369Z,3.97
2023-02-15T16:44:02.569Z,5.07
2023-02-15T16:46:34.383Z,5.18
2023-02-15T16:49:05.443Z,3.88
2023-02-15T16:51:34.322Z,6.78
2023-02-15T16:54:07.229Z,4.05
2023-02-15T16:56:35.163Z,8.10
2023-02-15T16:59:02.812Z,4.10
2023-02-15T17:01:33.560Z,5.47
2023-02-15T17:04:23.221Z,4.85
2023-02-15T17:07:04.511Z,5.22
2023-02-15T17:09:33.657Z,3.38
2023-02-15T17:12:03.449Z,4.10
2023-02-15T17:14:32.332Z,5.88
2023-02-15T17:17:01.318Z,5.53
2023-02-15T17:19:34.983Z,8.52
2023-02-15T17:22:28.144Z,4.43
2023-02-15T17:25:00.450Z,5.40
2023-02-15T17:27:29.695Z,4.65
2023-02-15T17:30:05.651Z,4.30
2023-02-15T17:32:37.532Z,3.88
2023-02-15T17:37:49.990Z,3.97
2023-02-15T17:40:20.007Z,3.90
2023-02-15T17:42:47.793Z,2.45
2023-02-15T17:45:16.049Z,2.92
2023-02-15T17:47:43.947Z,2.90
2023-02-15T17:50:38.053Z,2.95
2023-02-15T17:53:09.005Z,3.95
2023-02-15T17:55:39.215Z,3.45
2023-02-15T17:58:19.552Z,13.07
2023-02-15T18:01:11.871Z,8.65
2023-02-15T18:04:08.611Z,3.63
2023-02-15T18:06:56.764Z,2.92
2023-02-15T18:09:43.625Z,3.28
2023-02-15T18:12:31.358Z,7.43
2023-02-15T18:14:59.427Z,3.85
2023-02-15T18:17:34.902Z,5.30
2023-02-15T18:20:05.655Z,2.38
2023-02-15T18:22:33.422Z,2.92
2023-02-15T18:25:01.155Z,5.50
2023-02-15T18:27:29.002Z,4.68
2023-02-15T18:29:56.899Z,6.65
2023-02-15T18:32:34.300Z,13.70
2023-02-15T18:35:02.257Z,6.32
2023-02-15T18:37:58.909Z,10.77
2023-02-15T18:40:27.728Z,6.30
2023-02-15T18:42:57.249Z,7.55
2023-02-15T18:45:33.414Z,5.55
2023-02-15T18:48:01.204Z,7.25
2023-02-15T18:50:31.816Z,9.45
2023-02-15T18:52:59.928Z,9.73
2023-02-15T18:55:28.235Z,12.18
2023-02-15T18:57:57.001Z,11.00
2023-02-15T19:00:32.552Z,11.63
2023-02-15T19:03:02.117Z,11.15
2023-02-15T19:05:30.927Z,8.07
2023-02-15T19:07:59.795Z,7.40
2023-02-15T19:10:28.837Z,7.55
2023-02-15T19:12:56.506Z,9.02
2023-02-15T19:15:26.674Z,12.15
2023-02-15T19:17:54.636Z,9.57
2023-02-15T19:20:32.654Z,8.50
2023-02-15T19:23:01.603Z,12.85
2023-02-15T19:25:30.751Z,14.77
2023-02-15T19:27:58.973Z,24.98
2023-02-15T19:30:30.863Z,18.60
2023-02-15T19:32:58.960Z,19.20
2023-02-15T19:35:27.850Z,9.10
2023-02-15T19:38:00.434Z,18.10
2023-02-15T19:40:32.817Z,14.02
2023-02-15T19:43:00.482Z,7.60
2023-02-15T19:45:29.802Z,5.55
2023-02-15T19:47:57.493Z,10.98
2023-02-15T19:50:30.725Z,9.43
2023-02-15T19:52:58.548Z,7.72
2023-02-15T19:55:28.170Z,9.07
2023-02-15T19:57:56.872Z,10.00
2023-02-15T20:00:29.359Z,9.05
2023-02-15T20:02:59.400Z,10.70
2023-02-15T20:05:31.064Z,8.63
2023-02-15T20:07:58.661Z,5.82
2023-02-15T20:10:30.736Z,5.85
2023-02-15T20:12:58.989Z,8.00
2023-02-15T20:15:34.604Z,7.45
2023-02-15T20:18:04.315Z,9.48
2023-02-15T20:20:39.258Z,9.10
2023-02-15T20:23:07.309Z,6.63
2023-02-15T20:25:34.949Z,7.40
2023-02-15T20:28:02.711Z,7.35
2023-02-15T20:30:31.391Z,9.95
2023-02-15T20:32:59.273Z,7.75
2023-02-15T20:35:28.746Z,11.23
2023-02-15T20:37:57.326Z,7.93
2023-02-15T20:40:26.673Z,10.40
2023-02-15T20:42:54.574Z,7.78
2023-02-15T20:45:26.002Z,6.07
2023-02-15T20:47:58.493Z,8.20
2023-02-15T20:50:28.252Z,6.55
2023-02-15T20:52:57.820Z,8.52
2023-02-15T20:55:30.482Z,8.02
2023-02-15T20:57:59.734Z,9.15
2023-02-15T21:00:28.807Z,7.90
2023-02-15T21:03:01.176Z,8.05
2023-02-15T21:05:30.950Z,8.52
2023-02-15T21:08:12.167Z,7.28
2023-02-15T21:10:45.378Z,15.55
2023-02-15T21:13:39.808Z,27.15
2023-02-15T21:16:09.124Z,19.35
2023-02-15T21:18:39.020Z,24.40
2023-02-15T21:21:06.785Z,13.55
2023-02-15T21:23:42.017Z,18.67
2023-02-15T21:26:20.171Z,14.48
2023-02-15T21:28:49.194Z,8.93
2023-02-15T21:31:18.760Z,13.25
2023-02-15T21:33:46.738Z,22.63
2023-02-15T21:36:19.944Z,25.55
2023-02-15T21:38:47.645Z,18.27
2023-02-15T21:41:39.038Z,25.17
2023-02-15T21:44:42.086Z,9.85
2023-02-15T21:47:42.482Z,7.30
2023-02-15T21:50:33.873Z,4.80
2023-02-15T21:53:01.585Z,5.00
2023-02-15T21:55:29.354Z,4.90
2023-02-15T21:57:57.156Z,4.88
2023-02-15T22:00:25.681Z,4.78
2023-02-15T22:02:54.984Z,6.15
2023-02-15T22:05:33.491Z,4.55
2023-02-15T22:08:01.300Z,4.80
2023-02-15T22:10:32.980Z,5.15
2023-02-15T22:13:01.686Z,5.00
2023-02-15T22:15:36.632Z,3.30
2023-02-15T22:18:04.722Z,3.15
2023-02-15T22:20:32.693Z,3.13
2023-02-15T22:23:00.496Z,3.97
2023-02-15T22:25:28.443Z,4.00
2023-02-15T22:27:59.074Z,5.97
2023-02-15T22:30:29.265Z,6.05
2023-02-15T22:32:57.460Z,4.78
2023-02-15T22:35:34.432Z,4.80
2023-02-15T22:38:02.197Z,5.53
2023-02-15T22:40:32.039Z,5.47
2023-02-15T22:43:01.017Z,4.00
2023-02-15T22:45:29.132Z,3.63
2023-02-15T22:47:57.796Z,3.90
2023-02-15T22:50:27.547Z,4.90
2023-02-15T22:52:55.221Z,4.03
2023-02-15T22:55:27.983Z,4.18
2023-02-15T22:57:55.803Z,4.10
2023-02-15T23:00:25.869Z,4.10
2023-02-15T23:02:56.634Z,4.20
2023-02-15T23:05:33.728Z,3.38
2023-02-15T23:08:11.705Z,4.28
2023-02-15T23:10:39.752Z,3.63
2023-02-15T23:13:25.987Z,4.03
2023-02-15T23:15:58.858Z,3.90
2023-02-15T23:18:38.286Z,3.50
2023-02-15T23:21:31.303Z,3.80
2023-02-15T23:24:19.083Z,3.58
2023-02-15T23:26:47.634Z,3.63
2023-02-15T23:29:17.747Z,4.30
2023-02-15T23:31:47.202Z,3.72
2023-02-15T23:34:29.476Z,4.65
2023-02-15T23:36:57.365Z,3.47
2023-02-15T23:39:46.273Z,4.90
2023-02-15T23:42:21.796Z,4.07
2023-02-15T23:44:51.075Z,4.13
2023-02-15T23:47:19.853Z,8.50
2023-02-15T23:49:47.532Z,4.22
2023-02-15T23:52:15.211Z,4.38
2023-02-15T23:54:43.487Z,8.07
2023-02-15T23:57:11.331Z,10.77
2023-02-15T23:59:39.912Z,8.05
